createdAt,value
2022-12-24T00:01:10.380Z,100337.84
2022-12-24T00:03:39.805Z,100365.31
2022-12-24T00:06:08.540Z,100350.50
2022-12-24T00:08:36.643Z,100350.25
2022-12-24T00:11:04.666Z,100372.47
2022-12-24T00:13:32.627Z,100366.97
2022-12-24T00:16:00.844Z,100369.41
2022-12-24T00:18:31.101Z,100372.59
2022-12-24T00:21:02.025Z,100379.38
2022-12-24T00:23:29.960Z,100398.16
2022-12-24T00:25:57.766Z,100394.56
2022-12-24T00:28:25.737Z,100391.13
2022-12-24T00:30:53.777Z,100354.09
2022-12-24T00:33:24.621Z,100388.94
2022-12-24T00:35:54.081Z,100385.50
2022-12-24T00:38:23.417Z,100387.94
2022-12-24T00:40:51.337Z,100400.69
2022-12-24T00:43:19.215Z,100413.47
2022-12-24T00:45:48.242Z,100416.78
2022-12-24T00:48:16.094Z,100378.22
2022-12-24T00:50:44.077Z,100422.66
2022-12-24T00:53:13.158Z,100375.66
2022-12-24T00:55:42.457Z,100414.09
2022-12-24T00:58:10.473Z,100416.66
2022-12-24T01:00:38.512Z,100411.41
2022-12-24T01:03:06.488Z,100419.09
2022-12-24T01:05:33.719Z,100398.38
2022-12-24T01:08:01.731Z,100331.22
2022-12-24T01:10:29.581Z,100381.00
2022-12-24T01:12:58.892Z,100429.03
2022-12-24T01:15:26.754Z,100429.16
2022-12-24T01:17:54.579Z,100427.50
2022-12-24T01:20:22.819Z,100438.63
2022-12-24T01:22:50.663Z,100435.94
2022-12-24T01:25:18.644Z,100432.50
2022-12-24T01:27:46.535Z,100440.16
2022-12-24T01:30:16.187Z,100208.50
2022-12-24T01:32:44.153Z,100445.13
2022-12-24T01:35:12.717Z,100455.97
2022-12-24T01:37:40.719Z,100447.69
2022-12-24T01:40:29.389Z,100449.47
2022-12-24T01:43:15.105Z,100451.75
2022-12-24T01:45:49.262Z,100455.72
2022-12-24T01:48:37.062Z,100458.16
2022-12-24T01:51:10.636Z,100388.00
2022-12-24T01:53:40.733Z,100459.41
2022-12-24T01:56:09.495Z,100457.47
2022-12-24T01:58:39.188Z,100460.66
2022-12-24T02:01:08.988Z,100383.78
2022-12-24T02:03:36.939Z,100460.41
2022-12-24T02:06:06.199Z,100462.47
2022-12-24T02:08:40.944Z,100471.16
2022-12-24T02:11:17.127Z,100396.53
2022-12-24T02:13:51.413Z,100473.69
2022-12-24T02:16:36.408Z,100480.72
2022-12-24T02:19:24.794Z,100484.03
2022-12-24T02:22:03.127Z,100448.91
2022-12-24T02:24:59.404Z,100466.28
2022-12-24T02:27:38.754Z,100492.88
2022-12-24T02:30:18.719Z,100494.53
2022-12-24T02:33:02.054Z,100469.97
2022-12-24T02:35:39.559Z,100479.03
2022-12-24T02:38:15.707Z,100362.00
2022-12-24T02:40:49.041Z,100504.09
2022-12-24T02:43:23.928Z,100299.78
2022-12-24T02:45:59.445Z,100306.31
2022-12-24T02:48:30.194Z,100504.34
2022-12-24T02:51:05.662Z,100428.56
2022-12-24T02:53:34.765Z,100496.69
2022-12-24T02:56:32.333Z,100504.97
2022-12-24T02:59:21.337Z,100507.38
2022-12-24T03:01:58.081Z,100511.75
2022-12-24T03:04:40.898Z,100521.19
2022-12-24T03:07:17.489Z,100526.28
2022-12-24T03:09:57.280Z,100530.38
2022-12-24T03:12:34.580Z,100456.91
2022-12-24T03:15:04.535Z,100552.94
2022-12-24T03:17:38.176Z,100555.38
2022-12-24T03:20:07.762Z,100393.09
2022-12-24T03:22:36.578Z,100556.88
2022-12-24T03:25:05.241Z,100562.75
2022-12-24T03:27:36.202Z,100571.97
2022-12-24T03:30:09.663Z,100568.25
2022-12-24T03:32:38.942Z,100576.53
2022-12-24T03:35:07.789Z,100582.41
2022-12-24T03:37:35.633Z,100574.47
2022-12-24T03:40:03.561Z,100579.56
2022-12-24T03:42:31.417Z,100572.69
2022-12-24T03:44:59.366Z,100577.94
2022-12-24T03:47:27.310Z,100552.69
2022-12-24T03:49:56.575Z,100580.34
2022-12-24T03:52:24.633Z,100579.56
2022-12-24T03:54:52.516Z,100579.72
2022-12-24T03:57:20.417Z,100560.34
2022-12-24T03:59:48.224Z,100581.84
2022-12-24T04:02:16.373Z,100589.38
2022-12-24T04:04:44.488Z,100585.94
2022-12-24T04:07:13.740Z,100593.72
2022-12-24T04:09:41.971Z,100602.41
2022-12-24T04:12:10.005Z,100584.63
2022-12-24T04:14:37.841Z,100603.31
2022-12-24T04:17:05.844Z,100604.84
2022-12-24T04:19:33.889Z,100612.50
2022-12-24T04:22:01.835Z,100613.53
2022-12-24T04:24:31.132Z,100591.25
2022-12-24T04:26:59.083Z,100609.44
2022-12-24T04:29:26.978Z,100612.00
2022-12-24T04:31:54.903Z,100613.66
2022-12-24T04:34:22.842Z,100611.72
2022-12-24T04:36:50.680Z,100616.84
2022-12-24T04:39:18.607Z,100607.25
2022-12-24T04:41:47.856Z,100605.47
2022-12-24T04:44:15.719Z,100604.56
2022-12-24T04:46:43.674Z,100599.31
2022-12-24T04:49:11.871Z,100603.53
2022-12-24T04:51:39.736Z,100598.16
2022-12-24T04:54:07.713Z,100608.50
2022-12-24T04:56:35.694Z,100608.50
2022-12-24T04:59:04.963Z,100612.84
2022-12-24T05:01:34.639Z,100518.00
2022-12-24T05:04:02.766Z,100607.72
2022-12-24T05:06:33.629Z,100509.66
2022-12-24T05:09:02.114Z,100600.34
2022-12-24T05:11:30.036Z,100622.91
2022-12-24T05:13:58.069Z,100636.84
2022-12-24T05:16:27.396Z,100644.34
2022-12-24T05:18:55.690Z,100636.69
2022-12-24T05:21:25.327Z,100642.69
2022-12-24T05:24:11.575Z,100645.38
2022-12-24T05:26:42.573Z,100641.81
2022-12-24T05:29:12.494Z,100650.22
2022-12-24T05:31:43.764Z,100650.97
2022-12-24T05:34:13.092Z,100611.53
2022-12-24T05:36:42.100Z,100642.16
2022-12-24T05:39:15.944Z,100646.50
2022-12-24T05:41:44.267Z,100652.50
2022-12-24T05:44:12.390Z,100648.91
2022-12-24T05:46:41.724Z,100626.63
2022-12-24T05:49:09.900Z,100594.09
2022-12-24T05:51:37.775Z,100661.19
2022-12-24T05:54:06.038Z,100667.94
2022-12-24T05:56:34.541Z,100661.06
2022-12-24T05:59:02.422Z,100672.28
2022-12-24T06:01:30.363Z,100669.88
2022-12-24T06:03:59.808Z,100666.72
2022-12-24T06:06:29.239Z,100676.28
2022-12-24T06:08:57.380Z,100688.03
2022-12-24T06:11:27.133Z,100686.22
2022-12-24T06:13:55.439Z,100683.66
2022-12-24T06:16:24.605Z,100693.88
2022-12-24T06:18:52.945Z,100699.75
2022-12-24T06:21:22.352Z,100702.16
2022-12-24T06:23:50.205Z,100706.38
2022-12-24T06:26:20.416Z,100638.19
2022-12-24T06:28:49.924Z,100708.03
2022-12-24T06:31:20.506Z,100707.88
2022-12-24T06:33:49.265Z,100697.72
2022-12-24T06:36:20.562Z,100717.06
2022-12-24T06:38:50.080Z,100716.00
2022-12-24T06:41:18.924Z,100719.31
2022-12-24T06:43:47.756Z,100718.44
2022-12-24T06:46:16.086Z,100722.91
2022-12-24T06:48:44.964Z,100727.13
2022-12-24T06:51:13.491Z,100644.59
2022-12-24T06:53:41.525Z,100712.91
2022-12-24T06:56:13.440Z,100734.03
2022-12-24T06:58:42.141Z,100733.13
2022-12-24T07:01:12.127Z,100736.44
2022-12-24T07:03:40.538Z,100739.75
2022-12-24T07:06:12.306Z,100717.44
2022-12-24T07:08:40.187Z,100742.72
2022-12-24T07:11:08.162Z,100743.59
2022-12-24T07:13:37.357Z,100747.06
2022-12-24T07:16:06.412Z,100754.72
2022-12-24T07:18:34.668Z,100759.19
2022-12-24T07:21:04.595Z,100709.84
2022-12-24T07:23:32.650Z,100768.78
2022-12-24T07:26:02.768Z,100782.72
2022-12-24T07:28:31.313Z,100785.44
2022-12-24T07:31:00.831Z,100761.47
2022-12-24T07:33:28.996Z,100789.78
2022-12-24T07:36:01.431Z,100787.97
2022-12-24T07:38:29.829Z,100784.53
2022-12-24T07:40:58.220Z,100793.69
2022-12-24T07:43:26.168Z,100790.59
2022-12-24T07:45:57.442Z,100787.88
2022-12-24T07:48:28.198Z,100790.31
2022-12-24T07:50:56.945Z,100796.31
2022-12-24T07:53:26.319Z,100809.97
2022-12-24T07:55:54.542Z,100809.19
2022-12-24T07:58:23.309Z,100731.84
2022-12-24T08:00:56.155Z,100809.78
2022-12-24T08:03:24.519Z,100816.81
2022-12-24T08:05:54.056Z,100815.91
2022-12-24T08:08:22.573Z,100795.25
2022-12-24T08:10:50.556Z,100821.59
2022-12-24T08:13:18.443Z,100787.41
2022-12-24T08:15:46.542Z,100830.06
2022-12-24T08:18:14.489Z,100832.75
2022-12-24T08:20:42.821Z,100839.03
2022-12-24T08:23:12.520Z,100825.72
2022-12-24T08:25:43.669Z,100840.06
2022-12-24T08:28:11.511Z,100845.03
2022-12-24T08:30:39.494Z,100850.91
2022-12-24T08:33:07.539Z,100850.75
2022-12-24T08:35:35.373Z,100807.06
2022-12-24T08:38:03.322Z,100848.97
2022-12-24T08:40:32.747Z,100857.38
2022-12-24T08:43:02.358Z,100843.56
2022-12-24T08:45:34.642Z,100852.00
2022-12-24T08:48:06.559Z,100845.13
2022-12-24T08:50:34.645Z,100822.53
2022-12-24T08:53:02.499Z,100856.34
2022-12-24T08:55:30.463Z,100863.38
2022-12-24T08:58:01.469Z,100861.13
2022-12-24T09:00:29.688Z,100856.28
2022-12-24T09:02:58.087Z,100766.38
2022-12-24T09:05:27.196Z,100867.34
2022-12-24T09:07:55.048Z,100791.66
2022-12-24T09:10:23.199Z,100886.34
2022-12-24T09:12:52.140Z,100839.47
2022-12-24T09:15:21.388Z,100891.22
2022-12-24T09:17:49.411Z,100880.59
2022-12-24T09:20:17.359Z,100899.69
2022-12-24T09:22:45.231Z,100897.00
2022-12-24T09:25:13.231Z,100880.66
2022-12-24T09:27:41.239Z,100833.94
2022-12-24T09:30:10.459Z,100911.34
2022-12-24T09:32:39.782Z,100906.19
2022-12-24T09:35:08.171Z,100900.97
2022-12-24T09:37:36.118Z,100899.03
2022-12-24T09:40:04.058Z,100907.47
2022-12-24T09:42:45.341Z,100888.34
2022-12-24T09:45:19.700Z,100903.88
2022-12-24T09:47:52.281Z,100903.13
2022-12-24T09:50:29.683Z,100900.84
2022-12-24T09:53:04.047Z,100907.53
2022-12-24T09:55:34.797Z,100928.22
2022-12-24T09:58:06.234Z,100927.22
2022-12-24T10:00:38.175Z,100928.41
2022-12-24T10:03:16.186Z,100917.88
2022-12-24T10:05:53.208Z,100937.59
2022-12-24T10:08:28.577Z,100926.03
2022-12-24T10:11:02.047Z,100783.72
2022-12-24T10:13:43.043Z,100924.09
2022-12-24T10:16:20.354Z,100940.38
2022-12-24T10:18:58.739Z,100940.63
2022-12-24T10:21:34.610Z,100942.66
2022-12-24T10:24:08.166Z,100949.78
2022-12-24T10:26:41.911Z,100962.81
2022-12-24T10:29:16.683Z,100957.94
2022-12-24T10:31:51.944Z,100854.00
2022-12-24T10:34:24.899Z,100954.84
2022-12-24T10:36:53.070Z,100950.34
2022-12-24T10:39:24.092Z,100956.38
2022-12-24T10:41:55.433Z,100964.03
2022-12-24T10:44:27.192Z,100938.75
2022-12-24T10:46:55.656Z,100967.38
2022-12-24T10:49:33.008Z,100875.91
2022-12-24T10:52:06.463Z,100972.63
2022-12-24T10:54:39.585Z,100927.09
2022-12-24T10:57:26.406Z,100939.03
2022-12-24T10:59:56.122Z,100926.19
2022-12-24T11:02:30.274Z,100980.22
2022-12-24T11:05:03.315Z,100960.72
2022-12-24T11:07:32.926Z,100904.78
2022-12-24T11:10:03.289Z,100976.13
2022-12-24T11:12:33.723Z,100986.16
2022-12-24T11:15:04.916Z,100987.19
2022-12-24T11:17:32.856Z,100980.25
2022-12-24T11:20:07.115Z,100957.94
2022-12-24T11:22:35.232Z,100984.88
2022-12-24T11:25:07.374Z,100980.66
2022-12-24T11:27:42.194Z,100986.81
2022-12-24T11:30:22.359Z,100847.28
2022-12-24T11:32:54.507Z,100990.53
2022-12-24T11:35:26.774Z,100988.25
2022-12-24T11:38:11.525Z,100985.81
2022-12-24T11:40:43.631Z,100980.06
2022-12-24T11:43:17.229Z,100988.78
2022-12-24T11:45:50.928Z,100989.81
2022-12-24T11:48:30.560Z,100966.72
2022-12-24T11:51:02.341Z,100996.75
2022-12-24T11:53:37.336Z,101002.41
2022-12-24T11:56:15.471Z,101000.88
2022-12-24T11:58:47.411Z,101013.47
2022-12-24T12:01:20.480Z,101006.56
2022-12-24T12:03:50.489Z,100912.56
2022-12-24T12:06:28.972Z,101003.41
2022-12-24T12:09:01.540Z,101005.34
2022-12-24T12:11:30.555Z,101011.38
2022-12-24T12:14:02.591Z,101011.31
2022-12-24T12:16:56.452Z,100983.56
2022-12-24T12:19:26.942Z,101010.91
2022-12-24T12:21:56.145Z,101007.00
2022-12-24T12:24:32.009Z,100952.38
2022-12-24T12:27:08.763Z,101021.06
2022-12-24T12:29:43.762Z,101025.38
2022-12-24T12:32:18.088Z,101030.66
2022-12-24T12:34:57.957Z,101030.22
2022-12-24T12:37:32.629Z,101030.84
2022-12-24T12:40:00.811Z,101032.41
2022-12-24T12:42:33.999Z,101033.66
2022-12-24T12:45:17.143Z,101034.69
2022-12-24T12:48:01.282Z,101033.16
2022-12-24T12:50:35.737Z,101029.69
2022-12-24T12:53:26.096Z,101033.91
2022-12-24T12:56:02.467Z,101042.69
2022-12-24T12:58:34.655Z,101035.41
2022-12-24T13:01:10.229Z,101020.22
2022-12-24T13:04:14.267Z,101043.06
2022-12-24T13:07:12.219Z,101041.38
2022-12-24T13:10:02.696Z,101048.81
2022-12-24T13:12:44.224Z,101054.81
2022-12-24T13:15:30.846Z,101059.16
2022-12-24T13:18:22.644Z,101064.53
2022-12-24T13:20:52.563Z,101073.22
2022-12-24T13:23:23.619Z,101072.03
2022-12-24T13:25:55.209Z,101074.97
2022-12-24T13:28:34.620Z,101070.84
2022-12-24T13:31:29.905Z,101081.84
2022-12-24T13:34:04.940Z,101009.28
2022-12-24T13:37:04.576Z,101078.63
2022-12-24T13:40:04.463Z,101085.28
2022-12-24T13:43:10.093Z,101094.84
2022-12-24T13:45:50.175Z,101093.66
2022-12-24T13:48:35.867Z,101098.38
2022-12-24T13:51:20.345Z,101101.44
2022-12-24T13:53:49.825Z,101103.72
2022-12-24T13:56:30.231Z,101108.44
2022-12-24T13:59:18.246Z,101109.97
2022-12-24T14:01:46.609Z,101083.53
2022-12-24T14:04:24.958Z,101062.84
2022-12-24T14:06:54.626Z,101095.09
2022-12-24T14:09:25.651Z,101133.41
2022-12-24T14:12:17.018Z,101135.84
2022-12-24T14:14:46.462Z,101135.56
2022-12-24T14:17:23.440Z,101089.41
2022-12-24T14:19:55.039Z,101134.25
2022-12-24T14:22:30.454Z,101138.19
2022-12-24T14:25:00.554Z,101147.25
2022-12-24T14:27:39.084Z,101156.44
2022-12-24T14:30:17.224Z,101164.75
2022-12-24T14:32:47.192Z,101164.31
2022-12-24T14:35:18.941Z,101156.50
2022-12-24T14:37:50.355Z,101120.84
2022-12-24T14:40:19.993Z,101165.41
2022-12-24T14:42:56.594Z,101162.72
2022-12-24T14:45:32.990Z,101146.84
2022-12-24T14:48:10.059Z,101162.13
2022-12-24T14:50:51.030Z,101158.53
2022-12-24T14:53:29.654Z,101156.31
2022-12-24T14:55:57.573Z,101158.41
2022-12-24T14:58:31.628Z,101162.47
2022-12-24T15:01:02.790Z,101145.84
2022-12-24T15:03:33.279Z,101145.56
2022-12-24T15:06:05.214Z,101157.31
2022-12-24T15:08:36.237Z,101120.72
2022-12-24T15:11:07.042Z,101185.13
2022-12-24T15:13:38.501Z,101183.16
2022-12-24T15:16:11.479Z,101186.47
2022-12-24T15:18:44.617Z,101189.78
2022-12-24T15:21:19.043Z,101189.66
2022-12-24T15:23:49.826Z,101192.81
2022-12-24T15:26:23.534Z,101182.31
2022-12-24T15:28:56.563Z,101147.38
2022-12-24T15:31:30.747Z,101193.91
2022-12-24T15:34:00.476Z,101203.09
2022-12-24T15:36:31.646Z,101203.84
2022-12-24T15:39:03.017Z,101193.31
2022-12-24T15:41:38.181Z,101135.75
2022-12-24T15:44:06.627Z,101199.50
2022-12-24T15:46:35.945Z,101105.13
2022-12-24T15:49:04.904Z,101198.16
2022-12-24T15:51:37.830Z,101136.97
2022-12-24T15:54:14.243Z,101193.53
2022-12-24T15:56:45.067Z,101183.91
2022-12-24T15:59:31.104Z,101137.28
2022-12-24T16:02:27.421Z,101197.72
2022-12-24T16:04:55.633Z,101174.66
2022-12-24T16:07:47.473Z,101202.28
2022-12-24T16:10:25.242Z,101014.47
2022-12-24T16:12:53.655Z,101215.38
2022-12-24T16:15:21.530Z,101217.66
2022-12-24T16:17:53.110Z,101212.41
2022-12-24T16:20:23.821Z,101203.22
2022-12-24T16:22:52.471Z,101212.84
2022-12-24T16:25:26.839Z,101181.63
2022-12-24T16:27:58.413Z,101113.94
2022-12-24T16:30:28.393Z,101182.97
2022-12-24T16:32:57.625Z,101206.41
2022-12-24T16:35:28.085Z,101195.13
2022-12-24T16:37:56.796Z,101201.88
2022-12-24T16:40:27.765Z,101216.16
2022-12-24T16:43:14.904Z,101203.25
2022-12-24T16:45:43.492Z,101062.03
2022-12-24T16:48:20.938Z,101190.34
2022-12-24T16:50:48.907Z,101221.44
2022-12-24T16:53:18.087Z,101056.50
2022-12-24T16:55:47.788Z,101202.97
2022-12-24T16:58:17.403Z,101223.41
2022-12-24T17:00:45.800Z,101232.13
2022-12-24T17:03:15.685Z,101236.03
2022-12-24T17:05:45.539Z,101227.59
2022-12-24T17:08:13.887Z,101228.81
2022-12-24T17:10:41.980Z,101224.91
2022-12-24T17:13:09.936Z,101233.16
2022-12-24T17:15:37.875Z,101189.94
2022-12-24T17:18:06.367Z,101236.03
2022-12-24T17:20:35.634Z,101165.47
2022-12-24T17:23:03.847Z,101241.44
2022-12-24T17:25:31.796Z,101246.38
2022-12-24T17:28:00.271Z,101045.63
2022-12-24T17:30:28.097Z,100983.50
2022-12-24T17:32:56.036Z,101097.25
2022-12-24T17:35:24.058Z,101247.47
2022-12-24T17:37:53.343Z,101155.81
2022-12-24T17:40:21.418Z,101247.47
2022-12-24T17:42:49.428Z,101232.44
2022-12-24T17:45:17.296Z,101176.69
2022-12-24T17:47:45.213Z,101235.72
2022-12-24T17:50:13.140Z,101254.66
2022-12-24T17:52:41.275Z,101098.44
2022-12-24T17:55:11.280Z,101260.53
2022-12-24T17:57:39.592Z,101262.91
2022-12-24T18:00:08.949Z,101169.28
2022-12-24T18:02:37.357Z,101275.38
2022-12-24T18:05:06.061Z,101276.13
2022-12-24T18:07:33.930Z,101283.63
2022-12-24T18:10:01.839Z,101203.38
2022-12-24T18:12:31.240Z,101281.69
2022-12-24T18:14:59.132Z,101281.38
2022-12-24T18:17:27.148Z,101281.38
2022-12-24T18:19:55.097Z,101286.47
2022-12-24T18:22:23.033Z,101295.78
2022-12-24T18:24:50.935Z,101295.03
2022-12-24T18:27:19.123Z,101293.22
2022-12-24T18:29:48.436Z,101187.41
2022-12-24T18:32:17.110Z,101306.75
2022-12-24T18:34:45.088Z,101298.94
2022-12-24T18:37:12.983Z,101304.94
2022-12-24T18:39:41.019Z,101301.16
2022-12-24T18:42:14.319Z,101233.53
2022-12-24T18:44:42.577Z,101306.88
2022-12-24T18:47:12.188Z,101260.38
2022-12-24T18:49:40.152Z,101317.66
2022-12-24T18:52:10.557Z,101319.31
2022-12-24T18:54:38.886Z,101193.63
2022-12-24T18:57:07.073Z,101320.06
2022-12-24T18:59:36.550Z,101319.16
2022-12-24T19:02:04.625Z,101278.72
2022-12-24T19:04:33.855Z,101321.88
2022-12-24T19:07:01.968Z,101283.06
2022-12-24T19:09:30.185Z,101280.63
2022-12-24T19:11:58.019Z,101320.06
2022-12-24T19:14:26.191Z,101264.88
2022-12-24T19:16:54.095Z,101319.91
2022-12-24T19:19:24.171Z,101320.66
2022-12-24T19:21:53.766Z,101303.78
2022-12-24T19:24:21.588Z,101180.06
2022-12-24T19:26:49.772Z,101225.16
2022-12-24T19:29:17.980Z,101274.28
2022-12-24T19:31:47.485Z,101345.88
2022-12-24T19:34:15.623Z,101285.81
2022-12-24T19:36:43.676Z,101345.56
2022-12-24T19:39:12.846Z,101353.22
2022-12-24T19:41:40.717Z,101355.00
2022-12-24T19:44:08.951Z,101365.06
2022-12-24T19:46:38.116Z,101273.16
2022-12-24T19:49:08.407Z,101274.81
2022-12-24T19:51:36.798Z,101358.91
2022-12-24T19:54:06.253Z,101327.72
2022-12-24T19:56:36.438Z,101364.00
2022-12-24T19:59:05.253Z,101343.06
2022-12-24T20:01:36.250Z,101371.97
2022-12-24T20:04:05.043Z,101284.84
2022-12-24T20:06:35.622Z,101282.28
2022-12-24T20:09:06.010Z,101346.25
2022-12-24T20:11:36.059Z,101380.69
2022-12-24T20:14:05.547Z,101339.91
2022-12-24T20:16:34.337Z,101340.16
2022-12-24T20:19:05.683Z,101394.19
2022-12-24T20:21:33.943Z,101387.13
2022-12-24T20:24:01.801Z,101392.06
2022-12-24T20:26:30.652Z,101352.34
2022-12-24T20:29:03.769Z,101399.13
2022-12-24T20:31:32.218Z,101404.72
2022-12-24T20:34:01.542Z,101405.78
2022-12-24T20:36:30.735Z,101394.97
2022-12-24T20:38:59.736Z,101402.34
2022-12-24T20:41:30.245Z,101219.34
2022-12-24T20:44:00.824Z,101384.28
2022-12-24T20:46:31.147Z,101329.22
2022-12-24T20:48:59.263Z,101354.53
2022-12-24T20:51:28.846Z,101362.34
2022-12-24T20:53:59.182Z,101403.00
2022-12-24T20:56:27.560Z,101417.00
2022-12-24T20:58:55.754Z,101356.22
2022-12-24T21:01:28.567Z,101414.59
2022-12-24T21:04:00.482Z,101423.75
2022-12-24T21:06:28.417Z,101414.75
2022-12-24T21:08:56.246Z,101383.47
2022-12-24T21:11:42.207Z,101423.47
2022-12-24T21:14:10.372Z,101427.25
2022-12-24T21:16:41.286Z,101425.84
2022-12-24T21:19:10.804Z,101292.69
2022-12-24T21:21:38.791Z,101403.88
2022-12-24T21:24:07.463Z,101038.25
2022-12-24T21:26:36.286Z,101416.22
2022-12-24T21:29:06.682Z,101283.81
2022-12-24T21:31:34.701Z,101441.19
2022-12-24T21:34:04.574Z,101468.69
2022-12-24T21:36:32.615Z,101446.47
2022-12-24T21:39:00.542Z,101453.22
2022-12-24T21:41:28.496Z,101455.94
2022-12-24T21:43:56.482Z,101450.38
2022-12-24T21:46:27.256Z,101430.38
2022-12-24T21:49:14.296Z,101459.56
2022-12-24T21:51:46.788Z,101467.13
2022-12-24T21:54:31.638Z,101462.91
2022-12-24T21:57:19.082Z,101355.00
2022-12-24T21:59:51.765Z,101472.53
2022-12-24T22:02:22.711Z,101461.72
2022-12-24T22:04:50.765Z,101471.66
2022-12-24T22:07:41.295Z,101466.25
2022-12-24T22:10:27.616Z,101471.84
2022-12-24T22:12:56.034Z,101430.44
2022-12-24T22:15:24.017Z,101469.88
2022-12-24T22:17:51.910Z,101471.84
2022-12-24T22:20:19.923Z,101245.88
2022-12-24T22:22:50.123Z,101460.44
2022-12-24T22:25:18.637Z,101460.59
2022-12-24T22:27:47.055Z,101298.88
2022-12-24T22:30:14.982Z,101472.47
2022-12-24T22:32:42.885Z,101468.44
2022-12-24T22:35:11.135Z,101364.31
2022-12-24T22:37:39.192Z,101473.81
2022-12-24T22:40:09.907Z,101474.13
2022-12-24T22:42:38.365Z,101476.09
2022-12-24T22:45:07.434Z,101446.78
2022-12-24T22:47:35.334Z,101358.31
2022-12-24T22:50:03.448Z,101445.56
2022-12-24T22:52:32.945Z,101469.47
2022-12-24T22:55:00.957Z,101480.75
2022-12-24T22:57:30.427Z,101474.75
2022-12-24T22:59:58.265Z,101353.81
2022-12-24T23:02:28.810Z,101479.72
2022-12-24T23:04:57.847Z,101438.38
2022-12-24T23:07:25.976Z,101473.25
2022-12-24T23:09:53.841Z,101372.91
2022-12-24T23:12:41.917Z,101364.03
2022-12-24T23:15:11.202Z,101488.75
2022-12-24T23:17:39.273Z,101496.25
2022-12-24T23:20:08.537Z,101491.00
2022-12-24T23:22:36.386Z,101492.97
2022-12-24T23:25:04.561Z,101493.69
2022-12-24T23:27:32.551Z,101341.59
2022-12-24T23:30:00.379Z,101499.72
2022-12-24T23:32:29.683Z,101492.47
2022-12-24T23:34:57.599Z,101498.50
2022-12-24T23:37:31.036Z,101471.13
2022-12-24T23:40:02.813Z,101506.63
2022-12-24T23:42:30.720Z,101509.63
2022-12-24T23:44:58.718Z,101510.97
2022-12-24T23:47:26.799Z,101510.81
2022-12-24T23:49:56.279Z,101345.00
2022-12-24T23:52:24.243Z,101404.53
2022-12-24T23:54:52.260Z,101452.25
2022-12-24T23:57:20.151Z,101505.41
2022-12-24T23:59:48.098Z,101502.69
